Time;durP1;ratioP1;P1;durP2;ratioP2;P2;SDS_P1;SDS_P2;PMS_P1;PMS_P2;Temp;Humidity;BMP_temperature;BMP_pressure;BME280_temperature;BME280_humidity;BME280_pressure;Samples;Min_cycle;Max_cycle;Signal;HPM_P1;HPM_P2
2022/08/15 00:00:56;;;;;;;4.47;3.22;;;;;;;;;;2244215;58;21105;-85
2022/08/15 00:03:27;;;;;;;4.53;2.72;;;;;;;;;;2249683;56;21081;-85
2022/08/15 00:05:54;;;;;;;4.35;2.72;;;;;;;;;;2248463;56;21088;-85
2022/08/15 00:08:21;;;;;;;4.40;2.50;;;;;;;;;;2245862;55;21077;-84
2022/08/15 00:10:49;;;;;;;6.07;3.03;;;;;;;;;;2242872;58;22162;-85
2022/08/15 00:13:18;;;;;;;4.15;2.80;;;;;;;;;;2245997;56;21116;-85
2022/08/15 00:15:47;;;;;;;4.72;2.75;;;;;;;;;;2243263;58;21093;-85
2022/08/15 00:18:15;;;;;;;9.20;3.53;;;;;;;;;;2244228;56;21149;-85
2022/08/15 00:20:42;;;;;;;4.07;2.72;;;;;;;;;;2246418;56;21082;-85
2022/08/15 00:23:10;;;;;;;3.37;2.35;;;;;;;;;;2243093;57;21089;-85
2022/08/15 00:25:39;;;;;;;4.10;2.83;;;;;;;;;;2243482;56;21130;-86
2022/08/15 00:28:07;;;;;;;4.45;2.80;;;;;;;;;;2243350;56;21768;-85
2022/08/15 00:30:34;;;;;;;5.32;2.65;;;;;;;;;;2248422;55;21128;-85
2022/08/15 00:33:01;;;;;;;4.78;3.12;;;;;;;;;;2250567;56;21120;-85
2022/08/15 00:35:39;;;;;;;6.47;2.90;;;;;;;;;;2248313;56;21141;-85
2022/08/15 00:38:07;;;;;;;5.93;2.92;;;;;;;;;;2247764;56;21097;-85
2022/08/15 00:41:39;;;;;;;5.40;3.05;;;;;;;;;;2243186;58;21128;-85
2022/08/15 00:44:06;;;;;;;2.92;2.50;;;;;;;;;;2244722;56;21254;-85
2022/08/15 00:46:34;;;;;;;6.95;3.33;;;;;;;;;;2246294;56;21161;-85
2022/08/15 00:49:01;;;;;;;3.47;2.70;;;;;;;;;;2247649;55;21117;-85
2022/08/15 00:51:30;;;;;;;2.90;2.60;;;;;;;;;;2253549;56;21136;-85
2022/08/15 00:53:59;;;;;;;5.07;3.12;;;;;;;;;;2263821;56;21113;-85
2022/08/15 00:56:28;;;;;;;8.48;4.32;;;;;;;;;;2244347;56;21089;-85
2022/08/15 00:58:56;;;;;;;3.92;3.10;;;;;;;;;;2249416;56;21071;-86
2022/08/15 01:01:23;;;;;;;6.35;3.03;;;;;;;;;;2265649;55;21875;-85
2022/08/15 01:03:50;;;;;;;4.93;2.92;;;;;;;;;;2246999;56;21166;-85
2022/08/15 01:06:20;;;;;;;4.62;2.92;;;;;;;;;;2243961;56;21111;-86
2022/08/15 01:08:48;;;;;;;6.18;3.10;;;;;;;;;;2245742;56;21053;-86
2022/08/15 01:11:20;;;;;;;6.03;2.87;;;;;;;;;;2247679;56;21214;-85
2022/08/15 01:13:48;;;;;;;3.65;2.75;;;;;;;;;;2243549;58;21128;-85
2022/08/15 01:16:15;;;;;;;5.75;2.90;;;;;;;;;;2242802;57;21113;-85
2022/08/15 01:18:43;;;;;;;3.80;2.87;;;;;;;;;;2248132;55;21894;-86
2022/08/15 01:21:13;;;;;;;4.62;2.80;;;;;;;;;;2246811;56;21073;-85
2022/08/15 01:23:47;;;;;;;4.57;3.30;;;;;;;;;;2243942;56;21149;-85
2022/08/15 01:26:13;;;;;;;;;;;;;;;;;;2247165;56;21137;-85
2022/08/15 01:28:42;;;;;;;4.90;3.08;;;;;;;;;;2243148;57;20104;-85
2022/08/15 01:31:12;;;;;;;6.03;2.87;;;;;;;;;;2247017;56;21141;-85
2022/08/15 01:33:41;;;;;;;5.87;2.87;;;;;;;;;;2244369;56;21198;-85
2022/08/15 01:36:09;;;;;;;4.00;2.50;;;;;;;;;;2249783;56;21832;-85
2022/08/15 01:38:40;;;;;;;4.65;3.50;;;;;;;;;;2246625;56;21074;-86
2022/08/15 01:41:12;;;;;;;4.47;2.83;;;;;;;;;;2244311;56;21089;-85
2022/08/15 01:43:41;;;;;;;4.97;3.53;;;;;;;;;;2244809;56;21089;-86
2022/08/15 01:46:09;;;;;;;3.37;2.55;;;;;;;;;;2246562;56;21122;-85
2022/08/15 01:48:41;;;;;;;6.20;3.00;;;;;;;;;;2243706;56;21077;-86
2022/08/15 01:51:10;;;;;;;4.75;3.00;;;;;;;;;;2243997;56;21431;-85
2022/08/15 01:53:40;;;;;;;6.68;3.40;;;;;;;;;;2248431;56;21081;-85
2022/08/15 01:56:09;;;;;;;4.82;2.90;;;;;;;;;;2242942;58;21109;-86
2022/08/15 01:58:37;;;;;;;4.32;3.00;;;;;;;;;;2251846;56;21097;-86
2022/08/15 02:01:06;;;;;;;4.80;3.10;;;;;;;;;;2244202;56;21129;-85
2022/08/15 02:03:38;;;;;;;6.45;3.47;;;;;;;;;;2242616;58;21066;-85
2022/08/15 02:06:06;;;;;;;7.28;3.75;;;;;;;;;;2243068;56;21070;-85
2022/08/15 02:08:34;;;;;;;8.07;3.90;;;;;;;;;;2246787;55;21084;-86
2022/08/15 02:11:01;;;;;;;7.55;3.33;;;;;;;;;;2247827;55;21884;-85
2022/08/15 02:13:28;;;;;;;5.10;2.85;;;;;;;;;;2245915;56;21153;-85
2022/08/15 02:15:56;;;;;;;3.10;2.80;;;;;;;;;;2242535;58;21142;-85
2022/08/15 02:18:23;;;;;;;4.50;2.87;;;;;;;;;;2242932;58;21456;-85
2022/08/15 02:20:50;;;;;;;4.80;3.30;;;;;;;;;;2244736;55;21130;-85
2022/08/15 02:23:17;;;;;;;3.00;2.75;;;;;;;;;;2249941;56;21073;-85
2022/08/15 02:25:44;;;;;;;7.18;3.30;;;;;;;;;;2246610;56;21090;-84
2022/08/15 02:28:12;;;;;;;3.97;3.17;;;;;;;;;;2245737;56;21069;-84
2022/08/15 02:30:39;;;;;;;5.43;3.05;;;;;;;;;;2247161;56;21065;-85
2022/08/15 02:33:07;;;;;;;4.80;3.12;;;;;;;;;;2244849;56;22083;-85
2022/08/15 02:35:34;;;;;;;5.28;3.55;;;;;;;;;;2244557;56;21107;-85
2022/08/15 02:38:05;;;;;;;6.57;3.30;;;;;;;;;;2244063;56;21729;-85
2022/08/15 02:40:33;;;;;;;3.65;3.35;;;;;;;;;;2242959;56;21087;-85
2022/08/15 02:43:01;;;;;;;5.15;3.33;;;;;;;;;;2245476;58;21069;-85
2022/08/15 02:45:37;;;;;;;5.37;4.15;;;;;;;;;;2243451;56;21274;-85
2022/08/15 02:48:05;;;;;;;4.05;2.90;;;;;;;;;;2243025;56;21518;-85
2022/08/15 02:50:33;;;;;;;5.00;2.92;;;;;;;;;;2244240;56;21132;-85
2022/08/15 02:53:02;;;;;;;5.30;2.90;;;;;;;;;;2242683;58;21070;-85
2022/08/15 02:55:29;;;;;;;3.67;3.10;;;;;;;;;;2243021;56;21074;-85
2022/08/15 02:57:56;;;;;;;5.18;3.37;;;;;;;;;;2244568;56;21315;-85
2022/08/15 03:00:23;;;;;;;6.03;3.47;;;;;;;;;;2252963;56;22115;-85
2022/08/15 03:02:53;;;;;;;3.05;2.72;;;;;;;;;;2244670;56;21109;-85
2022/08/15 03:05:21;;;;;;;6.18;3.30;;;;;;;;;;2250399;56;21120;-85
2022/08/15 03:07:48;;;;;;;4.47;3.22;;;;;;;;;;2244488;56;21104;-85
2022/08/15 03:10:15;;;;;;;7.40;3.95;;;;;;;;;;2254291;56;21811;-86
2022/08/15 03:12:53;;;;;;;3.95;3.65;;;;;;;;;;2245584;56;21070;-85
2022/08/15 03:15:21;;;;;;;4.78;3.08;;;;;;;;;;2242672;58;21065;-83
2022/08/15 03:17:49;;;;;;;5.60;3.20;;;;;;;;;;2247655;56;21161;-84
2022/08/15 03:20:16;;;;;;;8.02;4.32;;;;;;;;;;2243177;55;21105;-85
2022/08/15 03:22:45;;;;;;;5.22;3.28;;;;;;;;;;2247187;56;21122;-84
2022/08/15 03:25:12;;;;;;;4.50;3.25;;;;;;;;;;2245904;56;21097;-84
2022/08/15 03:27:40;;;;;;;3.87;3.45;;;;;;;;;;2249200;55;21828;-85
2022/08/15 03:30:10;;;;;;;8.50;3.83;;;;;;;;;;2242558;58;21988;-85
2022/08/15 03:32:42;;;;;;;4.85;3.45;;;;;;;;;;2246463;56;21117;-85
2022/08/15 03:35:10;;;;;;;5.72;3.30;;;;;;;;;;2242885;58;21070;-85
2022/08/15 03:37:38;;;;;;;4.85;3.45;;;;;;;;;;2245306;56;21353;-85
2022/08/15 03:40:06;;;;;;;4.15;3.62;;;;;;;;;;2244380;56;21077;-84
2022/08/15 03:42:34;;;;;;;5.75;3.80;;;;;;;;;;2243867;56;21145;-86
2022/08/15 03:45:02;;;;;;;6.60;3.90;;;;;;;;;;2242991;58;21133;-85
2022/08/15 03:47:29;;;;;;;10.48;4.55;;;;;;;;;;2242511;58;21093;-84
2022/08/15 03:49:57;;;;;;;4.57;3.47;;;;;;;;;;2250366;56;21128;-86
2022/08/15 03:52:24;;;;;;;4.50;3.65;;;;;;;;;;2247273;56;21079;-85
2022/08/15 03:54:51;;;;;;;4.78;3.65;;;;;;;;;;2245181;56;21331;-86
2022/08/15 03:57:18;;;;;;;5.43;3.58;;;;;;;;;;2245005;56;21087;-85
2022/08/15 03:59:46;;;;;;;4.72;3.20;;;;;;;;;;2245798;56;21129;-85
2022/08/15 04:02:13;;;;;;;6.12;3.78;;;;;;;;;;2247683;56;21113;-85
2022/08/15 04:04:40;;;;;;;4.87;3.37;;;;;;;;;;2244739;56;21085;-84
2022/08/15 04:07:08;;;;;;;3.85;3.20;;;;;;;;;;2244968;56;21093;-85
2022/08/15 04:09:35;;;;;;;6.03;3.90;;;;;;;;;;2246539;56;21125;-86
2022/08/15 04:12:02;;;;;;;5.05;3.78;;;;;;;;;;2246480;56;21149;-84
2022/08/15 04:14:30;;;;;;;5.82;3.65;;;;;;;;;;2245218;56;21859;-85
2022/08/15 04:16:59;;;;;;;4.45;3.60;;;;;;;;;;2243465;56;21058;-85
2022/08/15 04:19:26;;;;;;;7.55;4.22;;;;;;;;;;2242950;58;21053;-85
2022/08/15 04:21:53;;;;;;;5.62;3.90;;;;;;;;;;2251598;56;21105;-85
2022/08/15 04:24:21;;;;;;;5.25;3.50;;;;;;;;;;2244851;56;21113;-85
2022/08/15 04:26:49;;;;;;;4.75;3.47;;;;;;;;;;2245879;56;21862;-84
2022/08/15 04:29:16;;;;;;;5.85;3.70;;;;;;;;;;2247279;56;21077;-85
2022/08/15 04:31:43;;;;;;;5.28;4.10;;;;;;;;;;2245611;55;21074;-86
2022/08/15 04:34:11;;;;;;;6.35;3.62;;;;;;;;;;2246983;55;21093;-85
2022/08/15 04:36:38;;;;;;;7.32;5.12;;;;;;;;;;2242550;56;21080;-85
2022/08/15 04:39:05;;;;;;;5.43;3.85;;;;;;;;;;2246024;56;21285;-84
2022/08/15 04:41:32;;;;;;;5.60;4.32;;;;;;;;;;2245365;56;21732;-85
2022/08/15 04:44:00;;;;;;;11.10;4.68;;;;;;;;;;2246367;56;21153;-85
2022/08/15 04:46:27;;;;;;;5.93;4.22;;;;;;;;;;2259167;56;21238;-84
2022/08/15 04:48:55;;;;;;;6.78;4.25;;;;;;;;;;2242891;57;21149;-86
2022/08/15 04:51:22;;;;;;;4.43;3.97;;;;;;;;;;2252369;56;21070;-87
2022/08/15 04:53:50;;;;;;;3.97;3.58;;;;;;;;;;2245946;56;21145;-84
2022/08/15 04:56:17;;;;;;;5.15;3.50;;;;;;;;;;2242995;58;21078;-85
2022/08/15 04:58:45;;;;;;;7.12;3.85;;;;;;;;;;2247641;56;21085;-84
2022/08/15 05:01:12;;;;;;;5.25;3.87;;;;;;;;;;2246193;56;21076;-85
2022/08/15 05:03:40;;;;;;;4.15;3.50;;;;;;;;;;2245530;56;21129;-85
2022/08/15 05:06:08;;;;;;;4.53;3.72;;;;;;;;;;2242896;58;21350;-84
2022/08/15 05:08:37;;;;;;;6.35;3.95;;;;;;;;;;2247429;56;21085;-85
2022/08/15 05:11:06;;;;;;;7.75;4.82;;;;;;;;;;2245188;56;21129;-84
2022/08/15 05:13:35;;;;;;;5.95;3.90;;;;;;;;;;2255395;56;21036;-84
2022/08/15 05:16:04;;;;;;;6.30;3.92;;;;;;;;;;2246744;56;21133;-85
2022/08/15 05:18:31;;;;;;;11.55;4.40;;;;;;;;;;2242948;58;21126;-85
2022/08/15 05:20:59;;;;;;;4.75;4.12;;;;;;;;;;2250223;56;21070;-85
2022/08/15 05:23:27;;;;;;;6.97;4.60;;;;;;;;;;2245334;56;21330;-84
2022/08/15 05:25:56;;;;;;;5.70;3.78;;;;;;;;;;2247038;56;21125;-85
2022/08/15 05:28:23;;;;;;;5.47;3.40;;;;;;;;;;2249327;56;21074;-84
2022/08/15 05:30:52;;;;;;;4.37;3.50;;;;;;;;;;2240895;58;21097;-81
2022/08/15 05:33:20;;;;;;;5.07;4.00;;;;;;;;;;2251843;56;21072;-84
2022/08/15 05:35:49;;;;;;;5.30;4.00;;;;;;;;;;2248457;56;21073;-84
2022/08/15 05:38:18;;;;;;;6.05;4.12;;;;;;;;;;2246920;56;21130;-83
2022/08/15 05:40:51;;;;;;;4.53;4.12;;;;;;;;;;2244877;56;21403;-84
2022/08/15 05:43:24;;;;;;;4.87;3.40;;;;;;;;;;2246693;56;21085;-84
2022/08/15 05:46:07;;;;;;;5.55;4.10;;;;;;;;;;2245408;56;21085;-83
2022/08/15 05:48:35;;;;;;;7.50;4.40;;;;;;;;;;2243608;58;21081;-84
2022/08/15 05:51:07;;;;;;;6.75;4.68;;;;;;;;;;2243409;58;21836;-83
2022/08/15 05:53:42;;;;;;;5.05;4.40;;;;;;;;;;2270442;55;21033;-82
2022/08/15 05:56:14;;;;;;;6.60;4.97;;;;;;;;;;2505183;55;21133;-83
2022/08/15 05:58:43;;;;;;;8.50;4.72;;;;;;;;;;2505626;55;21097;-83
2022/08/15 06:01:14;;;;;;;7.00;4.57;;;;;;;;;;2505783;55;21506;-83
2022/08/15 06:03:42;;;;;;;6.00;4.50;;;;;;;;;;2504930;55;21083;-83
2022/08/15 06:06:11;;;;;;;9.13;5.60;;;;;;;;;;2504953;55;21074;-83
2022/08/15 06:08:42;;;;;;;9.10;5.07;;;;;;;;;;2506665;55;21085;-84
2022/08/15 06:11:12;;;;;;;8.75;5.68;;;;;;;;;;2507777;55;21093;-83
2022/08/15 06:13:41;;;;;;;10.27;7.70;;;;;;;;;;2508154;55;21086;-84
2022/08/15 06:16:16;;;;;;;7.40;5.95;;;;;;;;;;2507486;55;21074;-84
2022/08/15 06:18:44;;;;;;;6.25;5.65;;;;;;;;;;2508008;55;21094;-83
2022/08/15 06:21:15;;;;;;;7.45;5.95;;;;;;;;;;2507897;55;21078;-83
2022/08/15 06:23:55;;;;;;;8.63;6.55;;;;;;;;;;2507988;54;21085;-83
2022/08/15 06:26:30;;;;;;;7.43;5.87;;;;;;;;;;2507434;55;21174;-84
2022/08/15 06:29:07;;;;;;;6.22;5.62;;;;;;;;;;2508161;55;21173;-84
2022/08/15 06:31:37;;;;;;;10.30;5.80;;;;;;;;;;2508073;55;21130;-84
2022/08/15 06:34:09;;;;;;;8.45;5.82;;;;;;;;;;2507883;54;21067;-84
2022/08/15 06:36:40;;;;;;;12.98;6.87;;;;;;;;;;2507403;55;21892;-84
2022/08/15 06:39:12;;;;;;;7.78;5.75;;;;;;;;;;2508126;54;21067;-83
2022/08/15 06:41:44;;;;;;;15.00;6.85;;;;;;;;;;2508479;55;21173;-84
2022/08/15 06:44:12;;;;;;;8.45;5.78;;;;;;;;;;2508200;55;21828;-84
2022/08/15 06:46:40;;;;;;;8.02;5.50;;;;;;;;;;2507625;55;21158;-84
2022/08/15 06:49:10;;;;;;;12.68;6.85;;;;;;;;;;2507712;55;21562;-84
2022/08/15 06:51:38;;;;;;;6.90;5.47;;;;;;;;;;2508169;55;21142;-84
2022/08/15 06:54:11;;;;;;;9.32;5.93;;;;;;;;;;2508312;55;21091;-83
2022/08/15 06:56:40;;;;;;;7.05;6.15;;;;;;;;;;2507982;55;21862;-83
2022/08/15 06:59:11;;;;;;;10.77;6.50;;;;;;;;;;2507982;55;21129;-83
2022/08/15 07:01:41;;;;;;;6.80;6.03;;;;;;;;;;2508320;55;21074;-83
2022/08/15 07:04:26;;;;;;;7.28;6.55;;;;;;;;;;2507915;54;21387;-83
2022/08/15 07:06:59;;;;;;;8.18;6.50;;;;;;;;;;2507584;55;21907;-84
2022/08/15 07:09:32;;;;;;;8.65;6.07;;;;;;;;;;2508321;55;21090;-84
2022/08/15 07:12:02;;;;;;;10.13;6.30;;;;;;;;;;2508845;55;21924;-84
2022/08/15 07:14:35;;;;;;;9.90;6.05;;;;;;;;;;2508386;54;21142;-84
2022/08/15 07:17:04;;;;;;;6.50;5.82;;;;;;;;;;2508040;55;21725;-84
2022/08/15 07:19:32;;;;;;;6.95;5.47;;;;;;;;;;2506994;54;21125;-84
2022/08/15 07:22:00;;;;;;;10.48;6.28;;;;;;;;;;2508115;55;21138;-84
2022/08/15 07:24:29;;;;;;;8.15;6.00;;;;;;;;;;2508316;54;21077;-84
2022/08/15 07:26:59;;;;;;;6.75;6.00;;;;;;;;;;2507689;55;21142;-83
2022/08/15 07:29:28;;;;;;;10.07;6.03;;;;;;;;;;2508287;54;21165;-84
2022/08/15 07:32:00;;;;;;;9.02;6.32;;;;;;;;;;2508311;55;21385;-84
2022/08/15 07:34:29;;;;;;;7.80;6.15;;;;;;;;;;2508788;54;21878;-84
2022/08/15 07:36:58;;;;;;;8.00;6.35;;;;;;;;;;2507703;55;21571;-84
2022/08/15 07:39:27;;;;;;;7.62;6.62;;;;;;;;;;2507807;55;21067;-84
2022/08/15 07:41:54;;;;;;;7.03;6.25;;;;;;;;;;2508747;54;21142;-83
2022/08/15 07:44:23;;;;;;;9.98;7.60;;;;;;;;;;2509046;54;21109;-84
2022/08/15 07:46:52;;;;;;;9.15;7.18;;;;;;;;;;2506488;54;21667;-85
2022/08/15 07:49:21;;;;;;;7.45;6.40;;;;;;;;;;2506999;55;21074;-84
2022/08/15 07:51:50;;;;;;;10.95;7.70;;;;;;;;;;2507116;55;21138;-84
2022/08/15 07:54:25;;;;;;;8.95;7.07;;;;;;;;;;2507174;54;21166;-84
2022/08/15 07:56:54;;;;;;;8.40;6.35;;;;;;;;;;2506542;55;21146;-83
2022/08/15 07:59:23;;;;;;;8.70;6.40;;;;;;;;;;2506592;55;21089;-83
2022/08/15 08:01:52;;;;;;;9.32;6.95;;;;;;;;;;2505379;55;21130;-83
2022/08/15 08:04:22;;;;;;;9.52;7.97;;;;;;;;;;2506510;55;21586;-83
2022/08/15 08:06:50;;;;;;;8.05;6.87;;;;;;;;;;2505392;55;21117;-83
2022/08/15 08:09:22;;;;;;;11.85;7.35;;;;;;;;;;2504958;55;21090;-83
2022/08/15 08:11:54;;;;;;;10.95;7.22;;;;;;;;;;2505573;55;21097;-84
2022/08/15 08:14:27;;;;;;;9.25;7.40;;;;;;;;;;2505429;54;21131;-83
2022/08/15 08:16:56;;;;;;;9.95;7.53;;;;;;;;;;2504812;55;21161;-83
2022/08/15 08:19:28;;;;;;;12.20;7.55;;;;;;;;;;2506659;55;21109;-83
2022/08/15 08:22:00;;;;;;;10.57;7.18;;;;;;;;;;2506479;55;21086;-83
2022/08/15 08:24:29;;;;;;;9.00;7.37;;;;;;;;;;2506316;55;21412;-83
2022/08/15 08:27:02;;;;;;;9.20;7.55;;;;;;;;;;2505174;55;21138;-82
2022/08/15 08:29:33;;;;;;;16.98;8.15;;;;;;;;;;2505182;54;21342;-82
2022/08/15 08:32:05;;;;;;;11.12;8.88;;;;;;;;;;2506011;55;21529;-79
2022/08/15 08:34:36;;;;;;;13.00;8.52;;;;;;;;;;2504035;54;21090;-79
2022/08/15 08:37:05;;;;;;;9.70;7.65;;;;;;;;;;2504289;55;21090;-79
2022/08/15 08:39:39;;;;;;;13.70;7.68;;;;;;;;;;2504771;55;21101;-79
2022/08/15 08:42:15;;;;;;;8.85;7.93;;;;;;;;;;2504747;55;21090;-79
2022/08/15 08:44:46;;;;;;;11.00;7.90;;;;;;;;;;2504737;54;21074;-80
2022/08/15 08:47:19;;;;;;;9.55;7.28;;;;;;;;;;2503805;54;21114;-79
2022/08/15 08:49:53;;;;;;;13.05;7.85;;;;;;;;;;2504847;55;21090;-78
2022/08/15 08:52:26;;;;;;;12.23;7.80;;;;;;;;;;2504653;55;21154;-78
2022/08/15 08:55:00;;;;;;;10.43;6.82;;;;;;;;;;2504208;54;21106;-79
2022/08/15 08:57:26;;;;;;;;;;;;;;;;;;2507830;55;21544;-79
2022/08/15 08:59:59;;;;;;;9.10;7.18;;;;;;;;;;2503353;55;20125;-79
2022/08/15 09:02:28;;;;;;;10.30;7.70;;;;;;;;;;2504446;55;21093;-79
2022/08/15 09:04:59;;;;;;;10.02;8.48;;;;;;;;;;2273583;59;21161;-80
2022/08/15 09:07:30;;;;;;;9.00;7.62;;;;;;;;;;2505341;55;21093;-79
2022/08/15 09:10:00;;;;;;;9.63;7.25;;;;;;;;;;2506716;55;21182;-79
2022/08/15 09:15:15;;;;;;;12.65;8.20;;;;;;;;;;2272216;59;21026;-76
2022/08/15 09:17:44;;;;;;;10.75;7.70;;;;;;;;;;2503749;54;21137;-84
2022/08/15 09:20:13;;;;;;;10.05;7.30;;;;;;;;;;2504653;55;21387;-83
2022/08/15 09:22:40;;;;;;;11.25;7.95;;;;;;;;;;2275086;59;21093;-82
2022/08/15 09:25:08;;;;;;;9.95;8.45;;;;;;;;;;2272663;58;21105;-81
2022/08/15 09:27:43;;;;;;;9.85;8.55;;;;;;;;;;2504731;55;21102;-81
2022/08/15 09:30:12;;;;;;;12.52;8.35;;;;;;;;;;2504317;54;21161;-81
2022/08/15 09:32:46;;;;;;;9.77;7.90;;;;;;;;;;2504103;55;21518;-81
2022/08/15 09:35:17;;;;;;;9.02;8.10;;;;;;;;;;2503749;54;21102;-80
2022/08/15 09:37:55;;;;;;;10.48;7.95;;;;;;;;;;2503484;54;21881;-82
2022/08/15 09:40:41;;;;;;;13.35;7.72;;;;;;;;;;2503975;55;21152;-81
2022/08/15 09:43:16;;;;;;;10.07;7.47;;;;;;;;;;2502805;55;21082;-82
2022/08/15 09:45:51;;;;;;;9.45;7.93;;;;;;;;;;2272423;59;21158;-80
2022/08/15 09:48:35;;;;;;;11.12;8.50;;;;;;;;;;2504378;54;21699;-81
2022/08/15 09:51:21;;;;;;;9.95;8.07;;;;;;;;;;2503848;55;21153;-82
2022/08/15 09:53:55;;;;;;;11.10;8.57;;;;;;;;;;2503299;54;21085;-81
2022/08/15 09:56:25;;;;;;;9.45;8.07;;;;;;;;;;2503319;55;21090;-82
2022/08/15 09:58:54;;;;;;;11.75;7.53;;;;;;;;;;2503375;54;21149;-81
2022/08/15 10:01:23;;;;;;;13.10;7.75;;;;;;;;;;2504095;55;21161;-81
2022/08/15 10:03:53;;;;;;;15.82;8.35;;;;;;;;;;2502495;54;21097;-81
2022/08/15 10:06:23;;;;;;;9.63;7.53;;;;;;;;;;2503435;55;21142;-81
2022/08/15 10:09:16;;;;;;;11.20;8.25;;;;;;;;;;2503534;54;21077;-81
2022/08/15 10:11:58;;;;;;;9.40;7.40;;;;;;;;;;2503117;55;21118;-81
2022/08/15 10:14:27;;;;;;;9.68;8.38;;;;;;;;;;2503054;55;21122;-81
2022/08/15 10:17:00;;;;;;;13.45;8.82;;;;;;;;;;2502540;54;21161;-81
2022/08/15 10:19:30;;;;;;;12.70;8.40;;;;;;;;;;2505329;54;21153;-82
2022/08/15 10:21:58;;;;;;;11.18;8.07;;;;;;;;;;2505893;54;21167;-78
2022/08/15 10:24:29;;;;;;;10.75;7.75;;;;;;;;;;2506986;54;21189;-80
2022/08/15 10:27:09;;;;;;;10.60;8.02;;;;;;;;;;2275155;59;21155;-81
2022/08/15 10:29:37;;;;;;;10.98;8.25;;;;;;;;;;2506941;55;21094;-81
2022/08/15 10:32:05;;;;;;;10.02;7.72;;;;;;;;;;2506511;54;21089;-82
2022/08/15 10:34:37;;;;;;;9.07;7.70;;;;;;;;;;2506855;54;21093;-82
2022/08/15 10:37:15;;;;;;;10.88;7.43;;;;;;;;;;2506282;55;21170;-81
2022/08/15 10:39:52;;;;;;;9.35;7.47;;;;;;;;;;2506818;55;21123;-83
2022/08/15 10:42:26;;;;;;;10.98;7.95;;;;;;;;;;2506938;55;21150;-83
2022/08/15 10:45:00;;;;;;;10.25;7.78;;;;;;;;;;2506289;54;21154;-83
2022/08/15 10:47:32;;;;;;;13.82;8.18;;;;;;;;;;2506776;55;21146;-82
2022/08/15 10:50:14;;;;;;;14.65;7.68;;;;;;;;;;2506912;55;21801;-81
2022/08/15 10:52:47;;;;;;;10.45;7.50;;;;;;;;;;2507314;55;21229;-83
2022/08/15 10:55:19;;;;;;;12.02;7.45;;;;;;;;;;2507476;54;21127;-81
2022/08/15 10:57:48;;;;;;;10.02;6.80;;;;;;;;;;2507109;55;21098;-82
2022/08/15 11:00:17;;;;;;;8.90;7.35;;;;;;;;;;2507972;55;21094;-82
2022/08/15 11:02:48;;;;;;;10.15;7.90;;;;;;;;;;2506413;55;21249;-83
2022/08/15 11:05:19;;;;;;;9.65;7.55;;;;;;;;;;2505603;54;21101;-82
2022/08/15 11:07:47;;;;;;;10.70;7.25;;;;;;;;;;2505449;55;21098;-81
2022/08/15 11:10:16;;;;;;;13.38;7.87;;;;;;;;;;2505205;54;21097;-80
2022/08/15 11:12:45;;;;;;;9.27;7.65;;;;;;;;;;2505397;55;21165;-81
2022/08/15 11:15:16;;;;;;;9.52;7.20;;;;;;;;;;2506592;54;21074;-79
2022/08/15 11:20:27;;;;;;;8.70;7.47;;;;;;;;;;2607521;53;22074;-80
2022/08/15 11:22:55;;;;;;;11.70;7.40;;;;;;;;;;2369219;56;21070;-80
2022/08/15 11:25:24;;;;;;;8.35;7.30;;;;;;;;;;2375179;56;21079;-81
2022/08/15 11:28:03;;;;;;;8.32;7.05;;;;;;;;;;2376385;56;21034;-80
2022/08/15 11:30:32;;;;;;;9.48;6.97;;;;;;;;;;2377342;56;21126;-81
2022/08/15 11:33:18;;;;;;;8.73;7.30;;;;;;;;;;2376736;56;21091;-80
2022/08/15 11:35:46;;;;;;;9.00;7.20;;;;;;;;;;2375153;56;21082;-80
2022/08/15 11:38:16;;;;;;;9.35;7.05;;;;;;;;;;2376953;56;21107;-80
2022/08/15 11:40:49;;;;;;;7.80;6.32;;;;;;;;;;2377021;56;21054;-80
2022/08/15 11:43:16;;;;;;;;;;;;;;;;;;2380818;56;21102;-80
2022/08/15 11:45:46;;;;;;;9.85;6.28;;;;;;;;;;2375779;56;20085;-80
2022/08/15 11:48:14;;;;;;;8.57;7.25;;;;;;;;;;2374485;56;21122;-80
2022/08/15 11:50:42;;;;;;;9.07;7.28;;;;;;;;;;2376312;56;21082;-80
2022/08/15 11:53:11;;;;;;;11.18;7.65;;;;;;;;;;2375585;56;21047;-80
2022/08/15 11:55:49;;;;;;;9.68;6.85;;;;;;;;;;2447469;55;68619;-84
2022/08/15 11:58:21;;;;;;;10.27;7.55;;;;;;;;;;2473321;56;21133;-86
2022/08/15 12:00:49;;;;;;;10.15;7.68;;;;;;;;;;2473027;56;22226;-86
2022/08/15 12:03:20;;;;;;;8.07;7.05;;;;;;;;;;2472531;56;21417;-87
2022/08/15 12:05:48;;;;;;;8.77;6.95;;;;;;;;;;2245046;60;21585;-86
2022/08/15 12:08:21;;;;;;;11.55;6.97;;;;;;;;;;2471025;56;21563;-85
2022/08/15 12:10:50;;;;;;;9.20;7.00;;;;;;;;;;2245685;60;21586;-84
2022/08/15 12:13:18;;;;;;;12.23;6.95;;;;;;;;;;2245640;60;21173;-88
2022/08/15 12:15:46;;;;;;;9.98;7.30;;;;;;;;;;2470213;55;21134;-85
2022/08/15 12:18:32;;;;;;;9.73;7.22;;;;;;;;;;2471389;56;21081;-85
2022/08/15 12:21:08;;;;;;;8.05;6.87;;;;;;;;;;2470792;56;21080;-84
2022/08/15 12:23:36;;;;;;;10.00;7.12;;;;;;;;;;2471433;56;21085;-83
2022/08/15 12:26:05;;;;;;;8.73;7.55;;;;;;;;;;2470786;56;21149;-84
2022/08/15 12:28:33;;;;;;;8.75;6.82;;;;;;;;;;2471214;55;21094;-85
2022/08/15 12:31:02;;;;;;;7.78;7.00;;;;;;;;;;2469968;56;21799;-81
2022/08/15 12:33:31;;;;;;;8.60;7.18;;;;;;;;;;2470432;56;21133;-84
2022/08/15 12:35:58;;;;;;;11.77;6.68;;;;;;;;;;2469371;55;21212;-84
2022/08/15 12:38:25;;;;;;;6.78;5.90;;;;;;;;;;2470268;56;21152;-85
2022/08/15 12:40:53;;;;;;;7.28;5.50;;;;;;;;;;2470155;56;21081;-83
2022/08/15 12:43:20;;;;;;;10.35;7.25;;;;;;;;;;2470204;56;21925;-84
2022/08/15 12:45:47;;;;;;;20.67;8.13;;;;;;;;;;2467771;55;21074;-84
2022/08/15 12:48:19;;;;;;;12.50;8.70;;;;;;;;;;2469433;56;21161;-82
2022/08/15 12:50:46;;;;;;;12.15;9.10;;;;;;;;;;2467780;56;21236;-83
2022/08/15 12:53:14;;;;;;;12.43;9.32;;;;;;;;;;2467633;55;22175;-82
2022/08/15 12:55:42;;;;;;;12.70;8.95;;;;;;;;;;2468902;55;21089;-83
2022/08/15 12:58:11;;;;;;;12.85;9.52;;;;;;;;;;2469844;56;21148;-82
2022/08/15 13:00:38;;;;;;;14.10;9.85;;;;;;;;;;2467678;56;21101;-83
2022/08/15 13:03:07;;;;;;;14.23;9.60;;;;;;;;;;2469577;56;21145;-83
2022/08/15 13:05:35;;;;;;;12.20;9.65;;;;;;;;;;2469604;55;21400;-83
2022/08/15 13:08:02;;;;;;;14.18;10.02;;;;;;;;;;2470105;56;21386;-84
2022/08/15 13:10:30;;;;;;;16.75;10.70;;;;;;;;;;2470367;56;21137;-84
2022/08/15 13:12:57;;;;;;;15.07;10.43;;;;;;;;;;2470322;55;21110;-83
2022/08/15 13:15:24;;;;;;;13.02;10.38;;;;;;;;;;2469454;55;21078;-83
2022/08/15 13:17:51;;;;;;;15.27;9.80;;;;;;;;;;2468713;56;21097;-85
2022/08/15 13:25:51;;;;;;;10.52;9.23;;;;;;;;;;2244792;60;21152;-85
2022/08/15 13:28:19;;;;;;;13.50;9.52;;;;;;;;;;2470752;56;21069;-85
2022/08/15 13:30:46;;;;;;;9.90;8.90;;;;;;;;;;2467407;56;21081;-83
2022/08/15 13:33:13;;;;;;;13.07;9.90;;;;;;;;;;2468647;56;21152;-82
2022/08/15 13:35:40;;;;;;;12.90;9.75;;;;;;;;;;2468456;55;21538;-84
2022/08/15 13:38:07;;;;;;;10.88;8.48;;;;;;;;;;2468750;56;21145;-83
2022/08/15 13:40:35;;;;;;;9.65;7.62;;;;;;;;;;2468666;56;21113;-83
2022/08/15 13:43:02;;;;;;;10.75;8.18;;;;;;;;;;2469124;56;21388;-84
2022/08/15 13:45:30;;;;;;;11.70;7.95;;;;;;;;;;2468930;55;21204;-84
2022/08/15 13:47:57;;;;;;;8.80;7.32;;;;;;;;;;2468042;56;21135;-85
2022/08/15 13:50:25;;;;;;;9.77;7.90;;;;;;;;;;2468642;56;21153;-82
2022/08/15 13:52:52;;;;;;;8.32;7.40;;;;;;;;;;2468434;56;21074;-83
2022/08/15 13:55:21;;;;;;;12.40;7.72;;;;;;;;;;2467654;55;21932;-83
2022/08/15 13:57:48;;;;;;;9.10;7.22;;;;;;;;;;2468266;56;21486;-84
2022/08/15 14:00:17;;;;;;;11.70;8.00;;;;;;;;;;2468765;56;21085;-81
2022/08/15 14:02:46;;;;;;;9.55;7.85;;;;;;;;;;2468878;56;21134;-85
2022/08/15 14:05:15;;;;;;;9.57;7.68;;;;;;;;;;2468765;55;21892;-82
2022/08/15 14:07:43;;;;;;;7.60;6.85;;;;;;;;;;2468995;56;21665;-83
2022/08/15 14:10:10;;;;;;;9.23;6.78;;;;;;;;;;2467995;56;21256;-81
2022/08/15 14:12:41;;;;;;;9.85;7.53;;;;;;;;;;2467944;56;21142;-80
2022/08/15 14:15:10;;;;;;;7.60;6.72;;;;;;;;;;2468188;55;21088;-84
2022/08/15 14:17:38;;;;;;;8.38;6.72;;;;;;;;;;2468147;55;21085;-81
2022/08/15 14:20:07;;;;;;;6.35;5.25;;;;;;;;;;2468449;56;21098;-81
2022/08/15 14:22:35;;;;;;;5.37;4.78;;;;;;;;;;2468239;56;21101;-81
2022/08/15 14:25:02;;;;;;;8.30;4.80;;;;;;;;;;2468000;55;21074;-81
2022/08/15 14:27:29;;;;;;;7.07;4.32;;;;;;;;;;2467388;56;21465;-81
2022/08/15 14:29:58;;;;;;;6.32;4.25;;;;;;;;;;2467561;56;21097;-83
2022/08/15 14:32:25;;;;;;;5.03;4.53;;;;;;;;;;2468227;56;21093;-82
2022/08/15 14:34:52;;;;;;;6.15;5.37;;;;;;;;;;2467295;55;21069;-83
2022/08/15 14:37:21;;;;;;;5.82;4.85;;;;;;;;;;2467542;56;21205;-81
2022/08/15 14:39:48;;;;;;;6.05;4.97;;;;;;;;;;2468069;56;21138;-82
2022/08/15 14:42:16;;;;;;;5.90;4.30;;;;;;;;;;2467552;56;21066;-81
2022/08/15 14:44:43;;;;;;;4.30;3.90;;;;;;;;;;2467552;55;21081;-83
2022/08/15 14:47:11;;;;;;;5.28;4.03;;;;;;;;;;2467109;56;21101;-82
2022/08/15 14:49:39;;;;;;;4.72;3.95;;;;;;;;;;2467297;56;21134;-78
2022/08/15 14:52:07;;;;;;;4.45;3.28;;;;;;;;;;2465345;55;21113;-82
2022/08/15 14:54:36;;;;;;;6.90;3.92;;;;;;;;;;2467201;55;21192;-82
2022/08/15 14:57:04;;;;;;;7.75;3.97;;;;;;;;;;2466728;56;21089;-83
2022/08/15 14:59:31;;;;;;;5.50;3.75;;;;;;;;;;2467596;56;21157;-81
2022/08/15 15:01:58;;;;;;;5.43;4.90;;;;;;;;;;2466286;56;21827;-83
2022/08/15 15:04:26;;;;;;;5.37;4.07;;;;;;;;;;2466945;55;21076;-82
2022/08/15 15:06:53;;;;;;;9.43;5.15;;;;;;;;;;2468129;56;21103;-84